EGSHEGHI

Guest
Details From EGSH - Norwich
To EGHI - Southampton
Flight Number -
Tags generated
Created
Modified
Stats Distance 143 nm / 264 km
Max Altitude 18,200 ft / 5,547 m
Waypoints 3
Social Downloads 2
Likes 0
Share VATSIM

Download

Looking for another format? Having issues loading an existing format? Contact us
Advertisement - Login to hide

Notes

Basic altitude profile: - Ascent Rate: 2500ft/min - Ascent Speed: 180kts - Cruise Altitude: 16000ft - Cruise Speed: 250kts - Descent Rate: 1500ft/min - Descent Speed: 250kts Options: - Use NATs: no - Use PACOTS: no - Use low airways: yes - Use high airways: no

Route

EGSH ADMIS EGHI

ID Type Via Altitude Latitude Longitude Leg Dist Tot Dist Heading (true) Name
O EGSH APT - 0 ft / 0 m 52.67686˚ 1.28449˚ - 0 nm - Norwich
ADMIS FIX - 18,200 ft / 5,547 m 51.99694˚ 0.17667˚ 57 nm 57 nm 225° / 224° -
O EGHI APT - 0 ft / 0 m 50.95026˚ -1.35681˚ 85 nm 142 nm 223° / 222° Southampton

Altitude Profile

Advertisement - Login to hide

EGSH

Details ICAO EGSH (NWI)
Name Norwich
Region United Kingdom
Timezone Europe/London (UTC+1.0)
Stats Elevation 117 ft / 36 m (AMSL)
Location 52.676860° 1.284493°
Runways 2
Magnetic Variation 0.098° W

METAR

EGSH 232150Z AUTO 21007KT 4400 BR SCT004/// BKN022/// 14/14 Q1017

Decode

TAF

Not found

Departure Runways

ID Width Length Bearing (true) Bearing (mag) Surface Threshold Offset Overrun Length
09 148 ft / 45 m 6,023 ft / 1,836 m 89.29° 89.39° Asphalt 0 ft / 0 m 0 ft / 0 m
21 141 ft / 43 m 5,148 ft / 1,569 m 216.41° 216.51° Asphalt 0 ft / 0 m 0 ft / 0 m
27 148 ft / 45 m 6,023 ft / 1,836 m 269.31° 269.41° Asphalt 0 ft / 0 m 0 ft / 0 m
3 141 ft / 43 m 5,148 ft / 1,569 m 36.39° 36.49° Asphalt 991 ft / 302 m 0 ft / 0 m

EGHI

Details ICAO EGHI (SOU)
Name Southampton
Region United Kingdom
Timezone Europe/London (UTC+1.0)
Stats Elevation 44 ft / 13 m (AMSL)
Location 50.950255° -1.356806°
Runways 1
Magnetic Variation 0.833° W

METAR

EGHI 232150Z 24004KT 210V270 9000 BKN009 13/12 Q1019

Decode

TAF

Not found

Destination Runways

ID Width Length Bearing (true) Bearing (mag) Surface Threshold Offset Overrun Length
02 121 ft / 37 m 5,650 ft / 1,722 m 19.33° 20.16° Asphalt 240 ft / 73 m 0 ft / 0 m
20 121 ft / 37 m 5,650 ft / 1,722 m 199.34° 200.17° Asphalt 144 ft / 44 m 0 ft / 0 m

Approach Navaids

Runway Type Ident Frequency Range Bearing (true) Bearing (mag) Slope Elevation
20 Localiser ISN 110.75 MHz 18 nm / 33 km 199.34° 200.17° - 44 ft / 13 m (AMSL)
20 Glidescope ISN 110.75 MHz 10 nm / 19 km 199.34° 200.17° 3.10° 44 ft / 13 m (AMSL)
20 DME ISN 110.75 MHz 18 nm / 33 km - - - 54 ft / 16 m (AMSL)